createdAt,value
2023-05-17T00:00:42.589Z,100363.25
2023-05-17T00:03:29.557Z,100361.53
2023-05-17T00:06:09.630Z,100370.13
2023-05-17T00:08:56.494Z,100365.22
2023-05-17T00:11:43.508Z,100370.44
2023-05-17T00:14:23.884Z,100374.09
2023-05-17T00:17:10.502Z,100368.97
2023-05-17T00:19:51.272Z,100380.06
2023-05-17T00:22:38.416Z,100384.56
2023-05-17T00:25:18.816Z,100387.19
2023-05-17T00:28:05.415Z,100377.22
2023-05-17T00:30:45.801Z,100392.47
2023-05-17T00:33:32.421Z,100386.13
2023-05-17T00:36:12.769Z,100391.56
2023-05-17T00:38:59.385Z,100387.88
2023-05-17T00:41:46.467Z,100378.84
2023-05-17T00:44:26.561Z,100360.56
2023-05-17T00:47:13.477Z,100373.72
2023-05-17T00:49:53.520Z,100369.22
2023-05-17T00:52:40.436Z,100368.34
2023-05-17T00:55:27.610Z,100355.72
2023-05-17T00:58:14.465Z,100353.38
2023-05-17T01:01:01.365Z,100355.34
2023-05-17T01:03:43.042Z,100345.19
2023-05-17T01:06:30.393Z,100347.16
2023-05-17T01:09:12.922Z,100328.09
2023-05-17T01:12:10.436Z,100338.47
2023-05-17T01:15:08.759Z,100323.13
2023-05-17T01:18:23.487Z,100305.78
2023-05-17T01:21:33.405Z,100294.38
2023-05-17T01:24:31.480Z,100274.47
2023-05-17T01:27:21.349Z,100252.59
2023-05-17T01:30:03.534Z,100255.03
2023-05-17T01:32:51.413Z,100251.78
2023-05-17T01:35:32.503Z,100246.44
2023-05-17T01:38:19.338Z,100259.41
2023-05-17T01:41:15.379Z,100242.09
2023-05-17T01:44:27.464Z,100234.91
2023-05-17T01:47:16.290Z,100222.13
2023-05-17T01:50:07.351Z,100229.34
2023-05-17T01:53:06.348Z,100223.16
2023-05-17T01:56:07.780Z,100198.22
2023-05-17T01:58:53.370Z,100192.81
2023-05-17T02:01:41.385Z,100186.56
2023-05-17T02:04:28.385Z,100174.69
2023-05-17T02:07:15.413Z,100170.44
2023-05-17T02:09:55.333Z,100162.28
2023-05-17T02:12:35.765Z,100163.50
2023-05-17T02:15:23.359Z,100177.41
2023-05-17T02:18:03.897Z,100177.06
2023-05-17T02:20:50.261Z,100172.31
2023-05-17T02:23:37.318Z,100171.91
2023-05-17T02:26:17.441Z,100181.31
2023-05-17T02:29:05.350Z,100203.13
2023-05-17T02:31:46.218Z,100210.09
2023-05-17T02:34:33.315Z,100224.56
2023-05-17T02:37:20.308Z,100202.22
2023-05-17T02:40:16.434Z,100230.94
2023-05-17T02:43:03.451Z,100248.72
2023-05-17T02:45:43.333Z,100244.28
2023-05-17T02:48:23.677Z,100242.81
2023-05-17T02:51:10.267Z,100249.75
2023-05-17T02:53:57.306Z,100250.88
2023-05-17T02:56:37.472Z,100255.16
2023-05-17T02:59:24.301Z,100245.38
2023-05-17T03:02:11.281Z,100224.44
2023-05-17T03:04:58.247Z,100234.31
2023-05-17T03:07:45.249Z,100208.00
2023-05-17T03:10:32.280Z,100228.47
2023-05-17T03:13:13.369Z,100231.53
2023-05-17T03:16:00.403Z,100255.38
2023-05-17T03:21:27.227Z,100283.34
2023-05-17T03:24:14.283Z,100272.66
2023-05-17T03:27:01.230Z,100300.00
2023-05-17T03:29:49.333Z,100301.09
2023-05-17T03:32:31.345Z,100266.97
2023-05-17T03:35:11.743Z,100258.91
2023-05-17T03:38:02.174Z,100275.31
2023-05-17T03:40:49.199Z,100292.84
2023-05-17T03:43:36.162Z,100279.72
2023-05-17T03:46:25.258Z,100265.19
2023-05-17T03:49:05.351Z,100249.53
2023-05-17T03:51:53.235Z,100249.97
2023-05-17T03:54:33.365Z,100242.41
2023-05-17T03:57:20.195Z,100235.69
2023-05-17T04:00:01.457Z,100236.91
2023-05-17T04:02:58.278Z,100226.47
2023-05-17T04:05:38.302Z,100216.91
2023-05-17T04:08:25.309Z,100231.78
2023-05-17T04:11:10.727Z,100262.47
2023-05-17T04:13:58.181Z,100287.63
2023-05-17T04:16:38.331Z,100298.81
2023-05-17T04:19:25.431Z,100297.88
2023-05-17T04:22:12.175Z,100304.75
2023-05-17T04:24:52.628Z,100318.31
2023-05-17T04:27:42.206Z,100316.47
2023-05-17T04:30:29.281Z,100316.19
2023-05-17T04:33:09.474Z,100317.09
2023-05-17T04:35:58.176Z,100325.22
2023-05-17T04:38:39.297Z,100310.75
2023-05-17T04:41:29.196Z,100313.44
2023-05-17T04:44:19.309Z,100315.63
2023-05-17T04:46:59.161Z,100305.47
2023-05-17T04:49:39.531Z,100313.63
2023-05-17T04:52:26.160Z,100311.72
2023-05-17T04:55:06.827Z,100321.97
2023-05-17T04:57:54.165Z,100333.41
2023-05-17T05:00:34.710Z,100329.03
2023-05-17T05:03:23.152Z,100345.41
2023-05-17T05:06:11.145Z,100355.38
2023-05-17T05:08:51.292Z,100364.22
2023-05-17T05:11:39.074Z,100362.00
2023-05-17T05:14:19.231Z,100363.59
2023-05-17T05:17:06.163Z,100357.97
2023-05-17T05:19:48.289Z,100351.66
2023-05-17T05:22:35.101Z,100362.88
2023-05-17T05:25:16.173Z,100363.25
2023-05-17T05:28:03.116Z,100366.25
2023-05-17T05:30:45.267Z,100349.19
2023-05-17T05:33:33.284Z,100339.66
2023-05-17T05:36:20.071Z,100343.75
2023-05-17T05:39:01.718Z,100343.22
2023-05-17T05:41:48.071Z,100340.91
2023-05-17T05:44:35.023Z,100339.16
2023-05-17T05:47:16.442Z,100339.78
2023-05-17T05:50:03.114Z,100337.34
2023-05-17T05:52:44.185Z,100338.91
2023-05-17T05:55:31.066Z,100344.34
2023-05-17T05:58:18.118Z,100347.81
2023-05-17T06:00:58.577Z,100353.06
2023-05-17T06:03:45.120Z,100357.47
2023-05-17T06:06:32.420Z,100363.81
2023-05-17T06:09:14.020Z,100370.72
2023-05-17T06:11:56.747Z,100374.25
2023-05-17T06:14:51.061Z,100375.34
2023-05-17T06:17:38.132Z,100377.94
2023-05-17T06:20:25.032Z,100374.84
2023-05-17T06:23:12.140Z,100383.72
2023-05-17T06:25:52.694Z,100381.44
2023-05-17T06:28:40.012Z,100385.44
2023-05-17T06:31:27.044Z,100375.53
2023-05-17T06:34:07.735Z,100379.84
2023-05-17T06:36:56.356Z,100371.47
2023-05-17T06:39:51.512Z,100380.38
2023-05-17T06:42:40.995Z,100378.53
2023-05-17T06:45:28.044Z,100380.78
2023-05-17T06:48:08.696Z,100376.88
2023-05-17T06:50:55.990Z,100383.16
2023-05-17T06:53:36.126Z,100388.47
2023-05-17T06:56:23.033Z,100383.97
2023-05-17T06:59:03.077Z,100387.41
2023-05-17T07:01:49.949Z,100381.69
2023-05-17T07:04:30.270Z,100386.66
2023-05-17T07:07:17.981Z,100387.81
2023-05-17T07:09:58.057Z,100394.53
2023-05-17T07:12:45.983Z,100392.38
2023-05-17T07:15:26.148Z,100393.97
2023-05-17T07:18:13.011Z,100392.63
2023-05-17T07:20:53.134Z,100395.59
2023-05-17T07:23:39.983Z,100394.00
2023-05-17T07:40:49.391Z,100390.38
2023-05-17T07:43:36.407Z,100395.75
2023-05-17T07:46:16.602Z,100390.34
2023-05-17T07:49:03.634Z,100388.66
2023-05-17T07:51:43.523Z,100385.88
2023-05-17T07:54:31.493Z,100369.53
2023-05-17T07:57:11.632Z,100352.22
2023-05-17T07:59:58.386Z,100362.19
2023-05-17T08:02:52.429Z,100352.09
2023-05-17T08:05:33.099Z,100351.88
2023-05-17T08:08:20.577Z,100349.53
2023-05-17T08:11:00.782Z,100342.75
2023-05-17T08:13:47.396Z,100339.50
2023-05-17T08:16:27.818Z,100342.13
2023-05-17T08:19:14.494Z,100337.47
2023-05-17T08:21:57.150Z,100336.34
2023-05-17T08:24:44.414Z,100328.75
2023-05-17T08:27:26.441Z,100324.63
2023-05-17T08:30:18.037Z,100334.00
2023-05-17T08:33:01.840Z,100321.28
2023-05-17T08:35:48.371Z,100319.47
2023-05-17T08:38:42.382Z,100321.69
2023-05-17T08:41:29.508Z,100316.38
2023-05-17T08:44:12.337Z,100330.09
2023-05-17T08:47:02.332Z,100312.31
2023-05-17T08:49:46.299Z,100325.41
2023-05-17T08:52:37.470Z,100319.56
2023-05-17T08:55:25.395Z,100323.25
2023-05-17T08:58:13.427Z,100328.78
2023-05-17T09:00:56.380Z,100332.31
2023-05-17T09:03:41.070Z,100320.94
2023-05-17T09:06:30.342Z,100328.16
2023-05-17T09:09:10.751Z,100327.06
2023-05-17T09:11:58.384Z,100331.53
2023-05-17T09:14:45.322Z,100315.59
2023-05-17T09:17:27.455Z,100309.41
2023-05-17T09:20:15.391Z,100297.94
2023-05-17T09:23:02.295Z,100301.38
2023-05-17T09:25:56.262Z,100298.31
2023-05-17T09:28:51.281Z,100294.19
2023-05-17T09:31:33.363Z,100293.84
2023-05-17T09:34:20.315Z,100307.78
2023-05-17T09:37:00.709Z,100314.44
2023-05-17T09:39:47.248Z,100310.19
2023-05-17T09:42:34.288Z,100306.88
2023-05-17T09:45:23.254Z,100310.38
2023-05-17T09:48:17.839Z,100309.94
2023-05-17T09:51:05.301Z,100326.25
2023-05-17T09:53:45.760Z,100312.88
2023-05-17T09:56:32.276Z,100320.81
2023-05-17T09:59:21.257Z,100313.66
2023-05-17T10:02:09.249Z,100296.66
2023-05-17T10:04:58.298Z,100293.28
2023-05-17T10:07:38.721Z,100294.09
2023-05-17T10:10:26.229Z,100283.59
2023-05-17T10:13:07.611Z,100287.03
2023-05-17T10:15:55.261Z,100283.06
2023-05-17T10:18:38.391Z,100283.38
2023-05-17T10:21:25.301Z,100286.19
2023-05-17T10:24:10.517Z,100277.13
2023-05-17T10:26:58.296Z,100277.22
2023-05-17T10:29:40.477Z,100286.38
2023-05-17T10:32:29.290Z,100270.38
2023-05-17T10:35:18.280Z,100274.09
2023-05-17T10:37:58.613Z,100257.91
2023-05-17T10:40:46.193Z,100266.28
2023-05-17T10:43:37.188Z,100255.91
2023-05-17T10:46:25.700Z,100259.84
2023-05-17T10:49:12.285Z,100264.13
2023-05-17T10:51:52.503Z,100266.16
2023-05-17T10:54:43.399Z,100260.91
2023-05-17T10:57:49.947Z,100266.91
2023-05-17T11:00:40.227Z,100272.75
2023-05-17T11:03:35.061Z,100285.63
2023-05-17T11:06:27.243Z,100282.09
2023-05-17T11:09:23.056Z,100282.84
2023-05-17T11:12:12.315Z,100294.53
2023-05-17T11:14:52.275Z,100284.53
2023-05-17T11:17:53.174Z,100296.97
2023-05-17T11:20:33.874Z,100286.28
2023-05-17T11:23:25.132Z,100261.03
2023-05-17T11:26:22.401Z,100267.34
2023-05-17T11:29:14.200Z,100265.34
2023-05-17T11:31:58.325Z,100260.00
2023-05-17T11:34:45.189Z,100258.44
2023-05-17T11:37:40.178Z,100249.41
2023-05-17T11:40:28.565Z,100254.38
2023-05-17T11:43:41.225Z,100248.09
2023-05-17T11:46:31.198Z,100237.22
2023-05-17T11:49:34.407Z,100224.41
2023-05-17T11:52:16.963Z,100215.53
2023-05-17T11:55:05.196Z,100222.34
2023-05-17T11:57:52.246Z,100215.97
2023-05-17T12:00:35.144Z,100217.97
2023-05-17T12:03:46.247Z,100217.91
2023-05-17T12:06:35.222Z,100224.75
2023-05-17T12:09:16.271Z,100246.59
2023-05-17T12:12:04.217Z,100241.91
2023-05-17T12:14:44.690Z,100232.00
2023-05-17T12:17:44.184Z,100225.53
2023-05-17T12:20:31.376Z,100229.94
2023-05-17T12:23:11.529Z,100227.53
2023-05-17T12:25:58.126Z,100228.16
2023-05-17T12:29:06.159Z,100214.81
2023-05-17T12:31:55.120Z,100223.28
2023-05-17T12:34:36.082Z,100223.38
2023-05-17T12:37:25.118Z,100222.16
2023-05-17T12:40:13.266Z,100232.53
2023-05-17T12:43:00.165Z,100212.69
2023-05-17T13:02:16.040Z,100195.28
2023-05-17T13:04:56.642Z,100208.63
2023-05-17T13:07:44.027Z,100191.59
2023-05-17T13:10:33.040Z,100177.25
2023-05-17T13:13:13.352Z,100184.63
2023-05-17T13:16:00.106Z,100172.06
2023-05-17T13:19:04.088Z,100151.84
2023-05-17T13:21:50.991Z,100155.94
2023-05-17T13:24:34.133Z,100128.19
2023-05-17T13:27:20.980Z,100149.34
2023-05-17T13:30:01.160Z,100143.63
2023-05-17T13:32:48.031Z,100136.41
2023-05-17T13:35:35.064Z,100139.16
2023-05-17T13:38:18.258Z,100126.28
2023-05-17T13:41:04.934Z,100116.75
2023-05-17T13:43:52.178Z,100125.31
2023-05-17T13:46:31.950Z,100099.41
2023-05-17T13:49:20.006Z,100117.25
2023-05-17T13:52:00.865Z,100107.38
2023-05-17T13:54:47.986Z,100096.72
2023-05-17T13:57:28.042Z,100097.78
2023-05-17T14:00:21.984Z,100098.72
2023-05-17T14:03:09.065Z,100098.66
2023-05-17T14:05:57.006Z,100096.22
2023-05-17T14:08:37.551Z,100103.75
2023-05-17T14:11:23.906Z,100097.00
2023-05-17T14:14:11.019Z,100111.59
2023-05-17T14:16:51.011Z,100090.00
2023-05-17T14:19:38.082Z,100104.19
2023-05-17T14:22:18.007Z,100109.94
2023-05-17T14:25:04.901Z,100122.69
2023-05-17T14:27:51.904Z,100113.88
2023-05-17T14:30:39.888Z,100110.59
2023-05-17T14:33:20.243Z,100112.53
2023-05-17T14:36:06.940Z,100105.00
2023-05-17T14:38:53.885Z,100113.78
2023-05-17T14:41:41.629Z,100124.94
2023-05-17T14:44:22.975Z,100117.69
2023-05-17T14:47:09.905Z,100098.59
2023-05-17T14:49:56.932Z,100089.47
2023-05-17T14:52:37.236Z,100089.84
2023-05-17T14:55:23.865Z,100081.09
2023-05-17T14:58:13.686Z,100060.34
2023-05-17T15:01:07.151Z,100080.72
2023-05-17T15:03:47.370Z,100073.78
2023-05-17T15:06:34.855Z,100096.16
2023-05-17T15:09:23.889Z,100074.28
2023-05-17T15:12:04.626Z,100071.47
2023-05-17T15:14:52.828Z,100087.16
2023-05-17T15:17:33.268Z,100084.81
2023-05-17T15:20:20.891Z,100067.59
2023-05-17T15:23:07.957Z,100099.56
2023-05-17T15:25:47.880Z,100087.50
2023-05-17T15:28:34.836Z,100080.69
2023-05-17T15:31:21.837Z,100094.28
2023-05-17T15:34:08.950Z,100100.03
2023-05-17T15:36:55.778Z,100099.47
2023-05-17T15:39:36.636Z,100118.94
2023-05-17T15:42:23.760Z,100106.50
2023-05-17T15:45:04.995Z,100101.75
2023-05-17T15:47:52.800Z,100106.03
2023-05-17T15:50:39.947Z,100136.97
2023-05-17T15:53:19.769Z,100134.63
2023-05-17T15:56:00.244Z,100097.34
2023-05-17T15:58:46.765Z,100112.31
2023-05-17T16:01:33.746Z,100112.81
2023-05-17T16:04:20.850Z,100129.53
2023-05-17T16:07:07.812Z,100112.72
2023-05-17T16:09:47.953Z,100119.34
2023-05-17T16:12:34.762Z,100122.19
2023-05-17T16:15:22.799Z,100116.50
2023-05-17T16:18:09.890Z,100117.91
2023-05-17T16:20:49.897Z,100137.22
2023-05-17T16:23:36.869Z,100130.84
2023-05-17T16:26:16.936Z,100146.38
2023-05-17T16:29:03.774Z,100133.03
2023-05-17T16:31:44.017Z,100139.78
2023-05-17T16:34:31.727Z,100145.00
2023-05-17T16:37:18.782Z,100141.09
2023-05-17T16:40:06.745Z,100156.13
2023-05-17T16:42:46.805Z,100145.97
2023-05-17T16:45:33.732Z,100157.34
2023-05-17T16:48:20.813Z,100150.84
2023-05-17T16:51:01.228Z,100153.19
2023-05-17T16:53:47.692Z,100136.88
2023-05-17T16:56:28.097Z,100140.88
2023-05-17T16:59:14.664Z,100147.19
2023-05-17T17:02:01.709Z,100160.72
2023-05-17T17:04:41.815Z,100154.72
2023-05-17T17:07:28.688Z,100155.97
2023-05-17T17:10:08.851Z,100152.00
2023-05-17T17:12:56.671Z,100151.59
2023-05-17T17:15:36.844Z,100147.13
2023-05-17T17:18:24.684Z,100129.34
2023-05-17T17:21:12.696Z,100152.69
2023-05-17T17:23:53.688Z,100137.09
2023-05-17T17:26:41.668Z,100148.22
2023-05-17T17:29:22.087Z,100162.63
2023-05-17T17:32:09.736Z,100151.88
2023-05-17T17:34:56.696Z,100162.94
2023-05-17T17:37:36.816Z,100155.69
2023-05-17T17:40:23.602Z,100167.53
2023-05-17T17:43:10.677Z,100173.53
2023-05-17T17:45:57.610Z,100172.72
2023-05-17T17:48:37.787Z,100163.97
2023-05-17T17:51:24.667Z,100174.97
2023-05-17T17:54:05.674Z,100170.16
2023-05-17T17:56:52.666Z,100180.94
2023-05-17T17:59:39.619Z,100182.56
2023-05-17T18:02:20.034Z,100187.38
2023-05-17T18:05:06.834Z,100203.25
2023-05-17T18:07:53.675Z,100185.44
2023-05-17T18:10:40.620Z,100190.22
2023-05-17T18:13:20.970Z,100194.66
2023-05-17T18:16:07.693Z,100181.94
2023-05-17T18:18:48.026Z,100175.38
2023-05-17T18:21:35.652Z,100169.34
2023-05-17T18:24:16.098Z,100174.34
2023-05-17T18:27:02.621Z,100182.63
2023-05-17T18:29:49.654Z,100188.31
2023-05-17T18:32:29.883Z,100184.00
2023-05-17T18:35:16.609Z,100192.72
2023-05-17T18:37:56.802Z,100195.06
2023-05-17T18:40:43.571Z,100187.88
2023-05-17T18:43:30.643Z,100185.91
2023-05-17T18:46:17.600Z,100194.25
2023-05-17T18:48:57.730Z,100194.25
2023-05-17T18:51:44.695Z,100187.97
2023-05-17T18:54:24.796Z,100213.00
2023-05-17T18:57:11.578Z,100206.63
2023-05-17T18:59:51.684Z,100207.28
2023-05-17T19:02:38.630Z,100217.22
2023-05-17T19:05:18.673Z,100224.84
2023-05-17T19:08:05.685Z,100202.91
2023-05-17T19:10:45.756Z,100219.59
2023-05-17T19:13:33.553Z,100210.94
2023-05-17T19:16:15.644Z,100216.97
2023-05-17T19:19:02.592Z,100209.78
2023-05-17T19:21:42.781Z,100221.34
2023-05-17T19:24:29.503Z,100219.75
2023-05-17T19:27:09.678Z,100189.50
2023-05-17T19:29:56.493Z,100194.63
2023-05-17T19:32:43.584Z,100199.00
